createdAt,value
2022-08-04T00:01:39.266Z,9.13
2022-08-04T00:04:36.592Z,10.05
2022-08-04T00:07:43.863Z,10.57
2022-08-04T00:10:18.180Z,12.95
2022-08-04T00:12:50.633Z,10.60
2022-08-04T00:15:18.776Z,15.07
2022-08-04T00:18:01.353Z,12.13
2022-08-04T00:20:33.768Z,7.47
2022-08-04T00:23:02.745Z,12.20
2022-08-04T00:25:30.144Z,11.98
2022-08-04T00:27:57.536Z,10.55
2022-08-04T00:30:25.439Z,10.25
2022-08-04T00:32:53.795Z,10.68
2022-08-04T00:35:21.060Z,13.57
2022-08-04T00:37:48.030Z,10.93
2022-08-04T00:40:42.340Z,13.13
2022-08-04T00:43:38.096Z,13.35
2022-08-04T00:46:29.808Z,11.65
2022-08-04T00:49:28.769Z,12.80
2022-08-04T00:52:34.145Z,16.15
2022-08-04T00:55:35.439Z,14.50
2022-08-04T00:58:38.049Z,11.13
2022-08-04T01:01:09.007Z,16.27
2022-08-04T01:04:22.094Z,11.93
2022-08-04T01:07:20.482Z,12.85
2022-08-04T01:10:40.354Z,15.32
2022-08-04T01:13:26.998Z,15.55
2022-08-04T01:16:07.619Z,10.32
2022-08-04T01:18:53.041Z,13.13
2022-08-04T01:22:06.474Z,11.75
2022-08-04T01:24:50.919Z,9.25
2022-08-04T01:27:18.308Z,10.77
2022-08-04T01:29:51.586Z,15.85
2022-08-04T01:32:37.159Z,18.87
2022-08-04T01:35:15.434Z,12.40
2022-08-04T01:37:51.755Z,13.40
2022-08-04T01:40:21.733Z,13.30
2022-08-04T01:42:53.984Z,16.75
2022-08-04T01:45:24.446Z,13.18
2022-08-04T01:47:54.748Z,16.50
2022-08-04T01:50:23.380Z,13.75
2022-08-04T01:52:54.949Z,10.55
2022-08-04T01:55:22.309Z,14.93
2022-08-04T01:57:52.319Z,12.25
2022-08-04T02:00:23.289Z,16.45
2022-08-04T02:02:51.549Z,10.13
2022-08-04T02:05:23.437Z,14.75
2022-08-04T02:08:11.572Z,9.95
2022-08-04T02:11:02.712Z,11.57
2022-08-04T02:13:57.047Z,13.65
2022-08-04T02:16:44.464Z,14.43
2022-08-04T02:20:05.413Z,13.50
2022-08-04T02:22:35.671Z,12.73
2022-08-04T02:25:10.600Z,12.10
2022-08-04T02:28:30.749Z,10.10
2022-08-04T02:31:23.278Z,12.70
2022-08-04T02:34:09.919Z,14.35
2022-08-04T02:36:43.181Z,14.85
2022-08-04T02:39:12.614Z,13.10
2022-08-04T02:41:40.885Z,15.02
2022-08-04T02:44:11.330Z,14.82
2022-08-04T02:46:39.477Z,12.38
2022-08-04T02:49:11.354Z,12.48
2022-08-04T02:51:43.461Z,14.50
2022-08-04T02:54:11.212Z,17.35
2022-08-04T02:56:40.124Z,11.48
2022-08-04T02:59:10.398Z,14.07
2022-08-04T03:01:57.187Z,12.18
2022-08-04T03:04:36.909Z,11.90
2022-08-04T03:08:00.066Z,13.05
2022-08-04T03:10:55.316Z,11.63
2022-08-04T03:14:15.636Z,11.73
2022-08-04T03:17:10.433Z,13.40
2022-08-04T03:20:14.387Z,12.43
2022-08-04T03:23:19.560Z,10.43
2022-08-04T03:26:08.256Z,15.23
2022-08-04T03:28:37.759Z,10.23
2022-08-04T03:31:04.528Z,10.73
2022-08-04T03:33:49.776Z,8.32
2022-08-04T03:36:32.083Z,10.88
2022-08-04T03:39:42.863Z,12.40
2022-08-04T03:42:34.828Z,14.20
2022-08-04T03:45:38.369Z,14.30
2022-08-04T03:49:01.383Z,12.07
2022-08-04T03:52:30.130Z,16.65
2022-08-04T03:55:28.384Z,14.50
2022-08-04T03:58:31.878Z,13.38
2022-08-04T04:02:02.384Z,11.90
2022-08-04T04:04:51.875Z,11.88
2022-08-04T04:07:58.145Z,9.98
2022-08-04T04:10:44.421Z,15.25
2022-08-04T04:13:27.302Z,9.05
2022-08-04T04:16:44.050Z,12.80
2022-08-04T04:22:38.699Z,12.02
2022-08-04T04:25:17.410Z,9.38
2022-08-04T04:28:44.927Z,12.35
2022-08-04T04:31:47.692Z,12.35
2022-08-04T04:34:32.810Z,10.70
2022-08-04T04:37:22.624Z,7.03
2022-08-04T04:39:59.655Z,12.13
2022-08-04T04:43:06.381Z,11.82
2022-08-04T04:46:00.903Z,13.65
2022-08-04T04:48:46.450Z,12.15
2022-08-04T04:54:26.828Z,8.65
2022-08-04T04:57:19.040Z,12.68
2022-08-04T05:00:11.878Z,14.70
2022-08-04T05:02:50.824Z,12.85
2022-08-04T05:05:47.940Z,12.65
2022-08-04T05:08:44.947Z,9.60
2022-08-04T05:11:24.473Z,10.65
2022-08-04T05:14:34.620Z,13.93
2022-08-04T05:16:47.887Z,8.55
2022-08-04T05:19:26.173Z,10.05
2022-08-04T05:22:33.232Z,9.00
2022-08-04T05:25:22.074Z,9.60
2022-08-04T05:28:03.812Z,8.93
2022-08-04T05:30:37.668Z,9.00
2022-08-04T05:33:10.548Z,8.35
2022-08-04T05:36:16.762Z,6.80
2022-08-04T05:38:37.955Z,7.20
2022-08-04T05:41:08.553Z,12.27
2022-08-04T05:43:38.475Z,9.55
2022-08-04T05:46:05.897Z,10.32
2022-08-04T05:48:34.412Z,10.43
2022-08-04T05:51:03.857Z,10.25
2022-08-04T05:53:31.121Z,6.72
2022-08-04T05:56:00.007Z,9.10
2022-08-04T05:58:30.917Z,10.13
2022-08-04T06:01:02.666Z,8.13
2022-08-04T06:03:35.806Z,9.43
2022-08-04T06:06:04.576Z,7.53
2022-08-04T06:08:32.034Z,9.70
2022-08-04T06:11:04.859Z,10.82
2022-08-04T06:13:48.217Z,8.13
2022-08-04T06:16:30.254Z,13.63
2022-08-04T06:20:01.891Z,9.38
2022-08-04T06:21:54.575Z,10.07
2022-08-04T06:24:25.475Z,12.15
2022-08-04T06:26:53.366Z,10.60
2022-08-04T06:29:28.352Z,12.35
2022-08-04T06:32:29.844Z,9.05
2022-08-04T06:34:47.020Z,7.97
2022-08-04T06:37:41.552Z,9.30
2022-08-04T06:40:30.714Z,10.95
2022-08-04T06:42:53.072Z,11.00
2022-08-04T06:45:21.011Z,10.75
2022-08-04T06:47:49.291Z,11.27
2022-08-04T06:51:25.117Z,7.72
2022-08-04T06:53:04.678Z,6.22
2022-08-04T06:55:33.788Z,6.70
2022-08-04T06:58:03.387Z,9.95
2022-08-04T07:00:32.566Z,6.90
2022-08-04T07:03:00.225Z,8.77
2022-08-04T07:05:27.589Z,7.68
2022-08-04T07:07:56.948Z,6.38
2022-08-04T07:10:28.331Z,8.82
2022-08-04T07:13:01.626Z,5.95
2022-08-04T07:15:29.300Z,9.65
2022-08-04T07:18:00.430Z,4.85
2022-08-04T07:20:33.802Z,6.57
2022-08-04T07:23:07.525Z,5.07
2022-08-04T07:26:00.128Z,4.07
2022-08-04T07:28:30.071Z,4.97
2022-08-04T07:30:58.822Z,4.03
2022-08-04T07:33:26.640Z,6.93
2022-08-04T07:36:10.127Z,5.25
2022-08-04T07:38:48.816Z,4.20
2022-08-04T07:41:42.519Z,3.67
2022-08-04T07:44:14.247Z,9.68
2022-08-04T07:46:41.745Z,6.60
2022-08-04T07:49:09.692Z,7.20
2022-08-04T07:51:37.959Z,6.78
2022-08-04T07:54:07.931Z,5.95
2022-08-04T07:56:37.739Z,4.03
2022-08-04T07:59:05.277Z,4.10
2022-08-04T08:01:33.628Z,5.10
2022-08-04T08:04:01.333Z,7.07
2022-08-04T08:06:33.248Z,2.88
2022-08-04T08:09:13.126Z,4.05
2022-08-04T08:12:36.855Z,5.03
2022-08-04T08:14:36.737Z,3.58
2022-08-04T08:17:06.444Z,2.95
2022-08-04T08:19:35.059Z,4.47
2022-08-04T08:22:02.642Z,4.28
2022-08-04T08:24:31.353Z,2.35
2022-08-04T08:27:00.613Z,5.38
2022-08-04T08:29:30.153Z,3.75
2022-08-04T08:32:01.617Z,4.10
2022-08-04T08:34:33.542Z,3.45
2022-08-04T08:37:30.007Z,7.25
2022-08-04T08:40:40.249Z,5.20
2022-08-04T08:44:00.678Z,4.35
2022-08-04T08:46:50.481Z,3.77
2022-08-04T08:50:02.102Z,3.28
2022-08-04T08:53:11.498Z,3.70
2022-08-04T08:55:54.443Z,3.03
2022-08-04T08:58:50.993Z,2.75
2022-08-04T09:01:48.920Z,6.18
2022-08-04T09:04:56.682Z,4.75
2022-08-04T09:07:48.355Z,2.45
2022-08-04T09:10:30.588Z,2.88
2022-08-04T09:13:05.917Z,4.17
2022-08-04T09:16:28.961Z,2.38
2022-08-04T09:19:09.960Z,5.78
2022-08-04T09:22:17.556Z,3.88
2022-08-04T09:25:05.210Z,3.53
2022-08-04T09:27:55.718Z,2.85
2022-08-04T09:30:33.538Z,2.90
2022-08-04T09:33:46.131Z,3.30
2022-08-04T09:36:46.858Z,4.28
2022-08-04T09:39:28.881Z,3.30
2022-08-04T09:42:34.469Z,2.70
2022-08-04T09:45:08.003Z,3.83
2022-08-04T09:47:52.683Z,4.82
2022-08-04T09:50:35.917Z,4.82
2022-08-04T09:53:45.973Z,3.83
2022-08-04T09:56:30.831Z,4.05
2022-08-04T09:59:14.157Z,4.93
2022-08-04T10:01:42.402Z,5.25
2022-08-04T10:04:13.881Z,3.78
2022-08-04T10:07:35.221Z,3.83
2022-08-04T10:10:34.766Z,3.20
2022-08-04T10:13:16.315Z,5.10
2022-08-04T10:16:10.750Z,3.47
2022-08-04T10:18:51.222Z,4.68
2022-08-04T10:21:50.737Z,6.85
2022-08-04T10:25:04.010Z,2.47
2022-08-04T10:27:38.755Z,2.03
2022-08-04T10:30:14.065Z,3.35
2022-08-04T10:32:46.089Z,3.53
2022-08-04T10:35:26.749Z,6.75
2022-08-04T10:38:16.808Z,2.42
2022-08-04T10:41:03.959Z,2.72
2022-08-04T10:43:58.051Z,1.75
2022-08-04T10:46:34.715Z,5.22
2022-08-04T10:49:09.207Z,3.03
2022-08-04T10:51:57.263Z,3.50
2022-08-04T10:54:33.414Z,7.78
2022-08-04T10:57:08.940Z,4.87
2022-08-04T10:59:50.105Z,4.05
2022-08-04T11:02:35.045Z,3.95
2022-08-04T11:05:22.031Z,3.65
2022-08-04T11:07:54.258Z,2.15
2022-08-04T11:10:26.115Z,4.68
2022-08-04T11:13:00.434Z,5.05
2022-08-04T11:15:53.347Z,2.43
2022-08-04T11:18:55.775Z,3.13
2022-08-04T11:21:32.773Z,4.18
2022-08-04T11:24:19.196Z,2.47
2022-08-04T11:27:10.477Z,3.05
2022-08-04T11:30:05.990Z,8.52
2022-08-04T11:32:44.284Z,8.65
2022-08-04T11:35:32.626Z,3.38
2022-08-04T11:40:55.793Z,3.38
2022-08-04T11:44:02.400Z,3.42
2022-08-04T11:46:41.297Z,4.38
2022-08-04T11:49:16.007Z,3.88
2022-08-04T11:51:46.030Z,3.33
2022-08-04T11:54:14.005Z,3.28
2022-08-04T11:56:41.095Z,1.50
2022-08-04T11:59:08.910Z,2.25
2022-08-04T12:02:01.123Z,1.52
2022-08-04T12:04:57.081Z,1.85
2022-08-04T12:10:40.963Z,2.30
2022-08-04T12:13:43.884Z,1.35
2022-08-04T12:16:33.076Z,3.65
2022-08-04T12:19:15.586Z,1.33
2022-08-04T12:21:57.922Z,1.27
2022-08-04T12:24:43.697Z,1.88
2022-08-04T12:27:21.461Z,5.40
2022-08-04T12:30:58.982Z,4.97
2022-08-04T12:33:00.684Z,1.77
2022-08-04T12:36:10.338Z,3.55
2022-08-04T12:38:33.543Z,3.73
2022-08-04T12:41:05.384Z,2.22
2022-08-04T12:43:39.819Z,3.88
2022-08-04T12:46:10.710Z,3.90
2022-08-04T12:48:40.199Z,3.05
2022-08-04T12:52:06.751Z,3.05
2022-08-04T12:53:58.542Z,2.67
2022-08-04T12:56:28.704Z,4.93
2022-08-04T12:59:05.636Z,4.25
2022-08-04T13:02:07.884Z,3.00
2022-08-04T13:04:29.533Z,3.00
2022-08-04T13:07:12.271Z,1.75
2022-08-04T13:09:39.692Z,2.65
2022-08-04T13:12:14.897Z,3.20
2022-08-04T13:14:44.698Z,5.72
2022-08-04T13:17:12.558Z,4.07
2022-08-04T13:19:47.148Z,2.50
2022-08-04T13:22:30.497Z,2.95
2022-08-04T13:26:40.723Z,3.90
2022-08-04T13:27:48.854Z,4.22
2022-08-04T13:30:23.566Z,3.25
2022-08-04T13:33:01.914Z,7.22
2022-08-04T13:35:54.451Z,3.67
2022-08-04T13:38:18.925Z,3.97
2022-08-04T13:40:46.710Z,4.20
2022-08-04T13:44:16.518Z,7.03
2022-08-04T13:46:28.936Z,4.35
2022-08-04T13:51:59.115Z,2.63
2022-08-04T13:54:47.707Z,2.55
2022-08-04T13:57:32.219Z,2.60
2022-08-04T14:00:08.144Z,4.78
2022-08-04T14:02:42.555Z,9.00
2022-08-04T14:05:27.863Z,6.85
2022-08-04T14:08:07.002Z,3.90
2022-08-04T14:10:36.183Z,7.65
2022-08-04T14:13:05.901Z,6.45
2022-08-04T14:16:02.949Z,5.13
2022-08-04T14:18:32.910Z,4.25
2022-08-04T14:21:10.870Z,4.60
2022-08-04T14:23:50.898Z,7.47
2022-08-04T14:26:19.419Z,4.22
2022-08-04T14:29:25.802Z,2.38
2022-08-04T14:31:34.746Z,4.22
2022-08-04T14:34:10.105Z,3.15
2022-08-04T14:37:13.417Z,3.88
2022-08-04T14:40:19.039Z,2.38
2022-08-04T14:42:55.024Z,5.20
2022-08-04T14:45:39.230Z,5.43
2022-08-04T14:48:22.086Z,1.95
2022-08-04T14:50:51.187Z,2.50
2022-08-04T14:53:21.849Z,3.90
2022-08-04T14:56:00.247Z,1.80
2022-08-04T14:58:38.825Z,5.82
2022-08-04T15:01:12.028Z,5.45
2022-08-04T15:03:48.286Z,6.07
2022-08-04T15:06:22.292Z,4.35
2022-08-04T15:08:53.152Z,6.45
2022-08-04T15:11:22.711Z,7.78
2022-08-04T15:13:51.159Z,4.80
2022-08-04T15:16:18.030Z,5.68
2022-08-04T15:18:49.284Z,6.88
2022-08-04T15:21:17.637Z,3.47
2022-08-04T15:23:44.611Z,4.05
2022-08-04T15:26:17.355Z,4.53
2022-08-04T15:28:52.069Z,3.67
2022-08-04T15:32:08.016Z,3.47
2022-08-04T15:34:11.234Z,7.32
2022-08-04T15:36:58.036Z,3.25
2022-08-04T15:39:36.098Z,2.08
2022-08-04T15:42:39.808Z,2.58
2022-08-04T15:46:37.057Z,5.55
2022-08-04T15:48:26.385Z,2.92
2022-08-04T15:50:55.878Z,3.72
2022-08-04T15:53:23.271Z,5.22
2022-08-04T15:56:26.431Z,5.30
2022-08-04T15:58:55.307Z,3.13
2022-08-04T16:01:23.003Z,4.38
2022-08-04T16:03:53.003Z,4.05
2022-08-04T16:06:29.808Z,7.53
2022-08-04T16:09:05.304Z,3.30
2022-08-04T16:14:11.360Z,3.00
2022-08-04T16:16:48.028Z,2.95
2022-08-04T16:19:35.620Z,3.45
2022-08-04T16:22:04.675Z,2.47
2022-08-04T16:24:39.397Z,2.30
2022-08-04T16:27:14.045Z,3.42
2022-08-04T16:29:49.431Z,7.95
2022-08-04T16:32:21.806Z,2.80
2022-08-04T16:35:05.454Z,2.65
2022-08-04T16:37:38.387Z,3.83
2022-08-04T16:40:31.725Z,1.83
2022-08-04T16:43:06.375Z,4.22
2022-08-04T16:45:43.622Z,3.45
2022-08-04T16:48:12.537Z,3.35
2022-08-04T16:51:07.351Z,5.57
2022-08-04T16:53:57.835Z,5.60
2022-08-04T16:59:10.495Z,3.00
2022-08-04T17:01:45.632Z,5.18
2022-08-04T17:06:42.959Z,4.18
2022-08-04T17:09:14.438Z,3.05
2022-08-04T17:11:44.210Z,2.45
2022-08-04T17:14:11.582Z,3.15
2022-08-04T17:16:43.473Z,5.43
2022-08-04T17:19:24.303Z,2.47
2022-08-04T17:22:06.009Z,4.47
2022-08-04T17:24:36.961Z,5.60
2022-08-04T17:29:52.039Z,3.75
2022-08-04T17:32:22.669Z,3.60
2022-08-04T17:35:02.236Z,3.38
2022-08-04T17:37:40.920Z,2.78
2022-08-04T17:40:25.646Z,2.20
2022-08-04T17:44:05.100Z,3.25
2022-08-04T17:46:34.389Z,4.28
2022-08-04T17:49:02.671Z,3.30
2022-08-04T17:52:04.501Z,3.42
2022-08-04T17:54:38.903Z,3.55
2022-08-04T17:57:21.824Z,6.07
2022-08-04T17:59:59.492Z,2.97
2022-08-04T18:02:34.852Z,2.95
2022-08-04T18:05:11.839Z,5.28
2022-08-04T18:08:37.749Z,4.30
2022-08-04T18:10:52.696Z,3.58
2022-08-04T18:13:25.839Z,3.03
2022-08-04T18:16:03.219Z,3.55
2022-08-04T18:18:30.156Z,4.38
2022-08-04T18:20:59.875Z,4.18
2022-08-04T18:23:31.405Z,2.60
2022-08-04T18:25:59.455Z,6.80
2022-08-04T18:28:30.723Z,6.85
2022-08-04T18:31:01.196Z,5.82
2022-08-04T18:33:39.917Z,8.30
2022-08-04T18:36:34.656Z,4.35
2022-08-04T18:39:13.637Z,4.05
2022-08-04T18:42:01.384Z,6.47
2022-08-04T18:44:31.841Z,2.47
2022-08-04T18:47:22.194Z,4.13
2022-08-04T18:51:01.566Z,5.07
2022-08-04T18:52:35.348Z,2.78
2022-08-04T18:55:09.806Z,3.72
2022-08-04T19:00:26.258Z,3.53
2022-08-04T19:02:53.225Z,4.20
2022-08-04T19:05:20.042Z,3.80
2022-08-04T19:08:01.804Z,4.38
2022-08-04T19:10:29.546Z,4.85
2022-08-04T19:12:56.501Z,4.32
2022-08-04T19:15:34.661Z,4.05
2022-08-04T19:18:02.551Z,2.58
2022-08-04T19:20:34.181Z,5.63
2022-08-04T19:24:28.244Z,3.15
2022-08-04T19:26:01.196Z,3.53
2022-08-04T19:28:33.993Z,5.00
2022-08-04T19:31:04.966Z,6.03
2022-08-04T19:33:58.246Z,2.70
2022-08-04T19:36:20.453Z,4.35
2022-08-04T19:39:00.359Z,3.47
2022-08-04T19:41:30.588Z,2.83
2022-08-04T19:43:58.382Z,4.13
2022-08-04T19:46:28.523Z,4.03
2022-08-04T19:48:59.244Z,3.95
2022-08-04T19:51:29.308Z,4.22
2022-08-04T19:54:03.821Z,6.15
2022-08-04T19:56:40.223Z,3.90
2022-08-04T19:59:10.493Z,4.13
2022-08-04T20:01:44.766Z,3.45
2022-08-04T20:06:40.737Z,3.55
2022-08-04T20:09:24.964Z,4.60
2022-08-04T20:11:57.377Z,6.63
2022-08-04T20:14:32.281Z,6.45
2022-08-04T20:17:10.074Z,4.07
2022-08-04T20:19:39.024Z,4.90
2022-08-04T20:22:50.788Z,4.95
2022-08-04T20:25:00.892Z,4.72
2022-08-04T20:30:31.715Z,4.32
2022-08-04T20:33:01.380Z,5.45
2022-08-04T20:35:58.040Z,4.45
2022-08-04T20:38:33.473Z,3.95
2022-08-04T20:41:01.568Z,3.63
2022-08-04T20:43:31.162Z,6.03
2022-08-04T20:45:59.321Z,7.45
2022-08-04T20:48:33.749Z,6.15
2022-08-04T20:51:01.137Z,5.78
2022-08-04T20:53:46.452Z,3.65
2022-08-04T20:56:19.393Z,6.15
2022-08-04T20:58:58.222Z,5.13
2022-08-04T21:01:27.130Z,5.55
2022-08-04T21:04:27.130Z,3.28
2022-08-04T21:06:54.791Z,3.42
2022-08-04T21:09:37.538Z,7.43
2022-08-04T21:12:10.780Z,2.17
2022-08-04T21:14:54.026Z,3.63
2022-08-04T21:17:56.605Z,6.40
2022-08-04T21:20:12.672Z,4.63
2022-08-04T21:22:40.765Z,7.15
2022-08-04T21:25:16.219Z,3.65
2022-08-04T21:27:44.481Z,5.35
2022-08-04T21:30:23.824Z,7.30
2022-08-04T21:32:51.233Z,4.22
2022-08-04T21:35:19.133Z,5.63
2022-08-04T21:37:58.215Z,5.03
2022-08-04T21:43:19.198Z,5.72
2022-08-04T21:45:47.085Z,6.28
2022-08-04T21:48:16.467Z,2.80
2022-08-04T21:50:43.771Z,7.40
2022-08-04T21:53:19.649Z,5.90
2022-08-04T21:56:05.800Z,6.15
2022-08-04T21:58:34.848Z,6.28
2022-08-04T22:01:12.835Z,5.20
2022-08-04T22:03:52.594Z,4.97
2022-08-04T22:06:28.745Z,7.13
2022-08-04T22:08:57.624Z,4.47
2022-08-04T22:11:43.972Z,3.47
2022-08-04T22:14:27.153Z,6.05
2022-08-04T22:16:56.689Z,3.70
2022-08-04T22:19:39.852Z,6.35
2022-08-04T22:22:13.622Z,5.15
2022-08-04T22:24:54.317Z,6.03
2022-08-04T22:27:39.663Z,6.70
2022-08-04T22:32:47.206Z,3.95
2022-08-04T22:35:36.253Z,5.15
2022-08-04T22:38:06.583Z,4.70
2022-08-04T22:40:38.631Z,3.33
2022-08-04T22:43:31.173Z,5.25
2022-08-04T22:45:52.785Z,6.20
2022-08-04T22:48:20.246Z,5.43
2022-08-04T22:50:47.477Z,5.68
2022-08-04T22:53:17.705Z,5.88
2022-08-04T22:56:07.573Z,7.88
2022-08-04T22:58:32.763Z,5.47
2022-08-04T23:01:00.663Z,7.88
2022-08-04T23:03:36.802Z,5.40
2022-08-04T23:06:11.097Z,6.18
2022-08-04T23:08:43.272Z,7.13
2022-08-04T23:11:14.768Z,6.13
2022-08-04T23:13:42.102Z,5.20
2022-08-04T23:16:10.254Z,8.63
2022-08-04T23:18:40.082Z,5.40
2022-08-04T23:21:10.275Z,6.95
2022-08-04T23:23:45.479Z,6.75
2022-08-04T23:26:27.640Z,6.55
2022-08-04T23:28:56.443Z,10.90
2022-08-04T23:31:24.345Z,5.03
2022-08-04T23:33:52.357Z,5.63
2022-08-04T23:36:26.327Z,6.43
2022-08-04T23:39:04.049Z,3.42
2022-08-04T23:41:55.292Z,5.25
2022-08-04T23:44:24.914Z,6.20
2022-08-04T23:47:04.673Z,4.93
2022-08-04T23:49:43.628Z,5.60
2022-08-04T23:52:28.308Z,7.93
2022-08-04T23:55:00.882Z,6.68
2022-08-04T23:58:02.136Z,9.40
